Terminal Aerodrome Forecast
Issued by NWS Huntsville, AL

Home | Current Version | Previous Version | Text Only | Print | Product List | Glossary On
Versions: 1 2 3 4 5 6 7 8 9 10 11 12 13 14 15 16 17 18 19 20 21 22 23 24 25 26 27 28 29 30 31
000
FTUS44 KHUN 030826 AAA
TAFHSV
TAF AMD
KHSV 030826Z 0308/0406 23009G14KT P6SM VCTS SCT025CB BKN040
      TEMPO 0309/0311 VRB12G22KT 2SM TSRA OVC025CB
     FM031200 24012G20KT 6SM -SHRA SCT030 BKN050 OVC100
     FM032200 24012KT 4SM BR VCSH SCT020 OVC060
     FM040300 19008KT P6SM OVC030=

USA.gov is the U.S. government's official web portal to all federal, state and local government web resources and services.